createdAt,value
2022-08-27T00:00:45.742Z,78.70
2022-08-27T00:03:13.245Z,78.00
2022-08-27T00:05:40.819Z,78.40
2022-08-27T00:08:09.570Z,78.70
2022-08-27T00:10:36.876Z,78.20
2022-08-27T00:13:03.925Z,78.20
2022-08-27T00:15:31.705Z,78.20
2022-08-27T00:17:58.717Z,78.80
2022-08-27T00:20:27.041Z,79.00
2022-08-27T00:22:54.867Z,79.80
2022-08-27T00:25:22.769Z,79.60
2022-08-27T00:27:50.204Z,80.30
2022-08-27T00:30:19.136Z,80.30
2022-08-27T00:32:46.485Z,80.40
2022-08-27T00:35:14.423Z,81.20
2022-08-27T00:37:41.940Z,81.80
2022-08-27T00:40:14.020Z,81.50
2022-08-27T00:42:42.561Z,81.40
2022-08-27T00:45:10.264Z,81.50
2022-08-27T00:47:42.974Z,81.60
2022-08-27T00:50:14.766Z,81.50
2022-08-27T00:52:47.176Z,81.00
2022-08-27T00:55:21.571Z,81.40
2022-08-27T00:57:58.071Z,81.80
2022-08-27T01:00:25.179Z,82.10
2022-08-27T01:02:52.139Z,81.80
2022-08-27T01:05:23.239Z,81.80
2022-08-27T01:07:53.984Z,82.10
2022-08-27T01:10:25.492Z,82.30
2022-08-27T01:12:54.335Z,82.70
2022-08-27T01:15:23.442Z,83.70
2022-08-27T01:17:51.185Z,83.90
2022-08-27T01:20:25.724Z,84.00
2022-08-27T01:25:34.743Z,84.00
2022-08-27T01:28:03.760Z,84.70
2022-08-27T01:30:31.691Z,84.90
2022-08-27T01:32:58.791Z,85.00
2022-08-27T01:35:26.053Z,85.10
2022-08-27T01:37:57.120Z,85.00
2022-08-27T01:40:24.703Z,85.70
2022-08-27T01:42:55.107Z,85.80
2022-08-27T01:45:26.086Z,86.00
2022-08-27T01:47:53.461Z,85.90
2022-08-27T01:50:27.734Z,86.60
2022-08-27T01:52:56.295Z,86.90
2022-08-27T01:55:26.190Z,87.40
2022-08-27T01:57:54.977Z,87.50
2022-08-27T02:00:25.625Z,87.30
2022-08-27T02:02:52.618Z,87.90
2022-08-27T02:05:20.583Z,88.10
2022-08-27T02:07:47.826Z,87.90
2022-08-27T02:10:19.714Z,88.30
2022-08-27T02:12:46.941Z,88.60
2022-08-27T02:15:14.881Z,88.90
2022-08-27T02:17:42.137Z,88.90
2022-08-27T02:20:11.190Z,89.10
2022-08-27T02:22:38.638Z,89.60
2022-08-27T02:25:07.273Z,90.30
2022-08-27T02:27:37.428Z,90.30
2022-08-27T02:30:05.498Z,90.40
2022-08-27T02:32:33.030Z,90.50
2022-08-27T02:35:00.536Z,90.70
2022-08-27T02:37:28.347Z,91.10
2022-08-27T02:39:55.763Z,91.50
2022-08-27T02:42:22.978Z,91.20
2022-08-27T02:44:50.115Z,91.30
2022-08-27T02:47:17.700Z,91.50
2022-08-27T02:49:45.281Z,91.30
2022-08-27T02:52:12.483Z,91.40
2022-08-27T02:54:40.774Z,91.50
2022-08-27T02:57:07.786Z,91.40
2022-08-27T02:59:35.002Z,91.90
2022-08-27T03:02:02.201Z,92.10
2022-08-27T03:04:29.664Z,92.30
2022-08-27T03:06:57.063Z,92.50
2022-08-27T03:09:24.080Z,92.20
2022-08-27T03:11:51.268Z,92.30
2022-08-27T03:14:18.239Z,92.70
2022-08-27T03:16:45.227Z,93.10
2022-08-27T03:19:12.445Z,93.10
2022-08-27T03:21:39.416Z,93.60
2022-08-27T03:24:11.691Z,93.50
2022-08-27T03:26:41.944Z,94.20
2022-08-27T03:29:20.973Z,93.90
2022-08-27T03:31:48.555Z,94.00
2022-08-27T03:34:19.602Z,94.60
2022-08-27T03:36:49.096Z,94.80
2022-08-27T03:39:16.042Z,94.50
2022-08-27T03:41:54.044Z,94.50
2022-08-27T03:44:24.237Z,94.60
2022-08-27T03:46:54.150Z,94.60
2022-08-27T03:49:22.376Z,94.60
2022-08-27T03:51:53.391Z,94.30
2022-08-27T03:54:20.815Z,94.40
2022-08-27T03:56:47.839Z,94.80
2022-08-27T03:59:16.373Z,95.40
2022-08-27T04:01:45.111Z,95.10
2022-08-27T04:04:13.245Z,95.10
2022-08-27T04:06:41.237Z,95.30
2022-08-27T04:09:08.241Z,95.60
2022-08-27T04:11:35.470Z,95.50
2022-08-27T04:14:18.206Z,96.00
2022-08-27T04:16:55.052Z,96.40
2022-08-27T04:19:26.931Z,96.40
2022-08-27T04:21:58.420Z,96.60
2022-08-27T04:24:25.374Z,97.00
2022-08-27T04:26:52.354Z,97.00
2022-08-27T04:29:19.362Z,97.50
2022-08-27T04:31:46.753Z,97.60
2022-08-27T04:34:13.713Z,98.00
2022-08-27T04:36:40.645Z,98.00
2022-08-27T04:39:07.659Z,98.10
2022-08-27T04:41:34.832Z,98.10
2022-08-27T04:44:08.524Z,97.60
2022-08-27T04:46:40.571Z,97.30
2022-08-27T04:49:11.986Z,97.50
2022-08-27T04:51:41.569Z,97.60
2022-08-27T04:54:10.991Z,97.70
2022-08-27T04:56:39.314Z,97.60
2022-08-27T04:59:09.315Z,97.80
2022-08-27T05:01:38.364Z,97.80
2022-08-27T05:04:06.401Z,97.90
2022-08-27T05:06:34.393Z,97.50
2022-08-27T05:09:01.381Z,97.40
2022-08-27T05:11:32.467Z,97.30
2022-08-27T05:13:59.539Z,98.30
2022-08-27T05:16:26.637Z,97.90
2022-08-27T05:18:53.986Z,97.90
2022-08-27T05:21:34.102Z,98.30
2022-08-27T05:24:03.264Z,98.00
2022-08-27T05:26:30.885Z,97.80
2022-08-27T05:29:01.817Z,97.60
2022-08-27T05:31:29.557Z,97.80
2022-08-27T05:33:57.757Z,97.70
2022-08-27T05:36:31.012Z,97.20
2022-08-27T05:38:58.503Z,97.60
2022-08-27T05:41:33.930Z,97.00
2022-08-27T05:44:18.461Z,97.00
2022-08-27T05:46:52.394Z,96.80
2022-08-27T05:49:19.444Z,97.20
2022-08-27T05:51:46.415Z,97.10
2022-08-27T05:54:19.759Z,97.00
2022-08-27T05:56:49.739Z,96.60
2022-08-27T05:59:35.207Z,96.00
2022-08-27T06:02:02.742Z,95.50
2022-08-27T06:04:29.786Z,95.90
2022-08-27T06:06:57.214Z,96.10
2022-08-27T06:09:28.954Z,95.90
2022-08-27T06:11:57.766Z,96.10
2022-08-27T06:14:25.289Z,96.20
2022-08-27T06:16:52.281Z,96.50
2022-08-27T06:19:19.787Z,96.40
2022-08-27T06:21:46.900Z,95.70
2022-08-27T06:24:29.451Z,95.80
2022-08-27T06:26:57.604Z,95.70
2022-08-27T06:29:24.751Z,95.50
2022-08-27T06:31:53.159Z,95.40
2022-08-27T06:34:20.264Z,94.80
2022-08-27T06:36:47.222Z,95.30
2022-08-27T06:39:16.944Z,94.80
2022-08-27T06:41:44.484Z,94.30
2022-08-27T06:44:12.399Z,94.50
2022-08-27T06:46:40.283Z,94.00
2022-08-27T06:49:07.765Z,94.50
2022-08-27T06:51:38.232Z,93.90
2022-08-27T06:54:09.535Z,93.20
2022-08-27T06:56:36.636Z,92.60
2022-08-27T06:59:11.512Z,92.40
2022-08-27T07:01:42.181Z,91.70
2022-08-27T07:04:12.481Z,90.60
2022-08-27T07:06:40.766Z,90.00
2022-08-27T07:09:09.736Z,90.40
2022-08-27T07:11:36.910Z,88.40
2022-08-27T07:14:06.282Z,86.60
2022-08-27T07:16:33.329Z,84.10
2022-08-27T07:19:03.775Z,83.40
2022-08-27T07:21:33.064Z,82.60
2022-08-27T07:24:05.151Z,83.20
2022-08-27T07:26:35.234Z,80.60
2022-08-27T07:29:03.800Z,79.90
2022-08-27T07:31:31.051Z,80.40
2022-08-27T07:33:58.023Z,78.40
2022-08-27T07:36:25.262Z,76.00
2022-08-27T07:39:00.933Z,77.60
2022-08-27T07:41:32.633Z,76.80
2022-08-27T07:44:18.986Z,75.50
2022-08-27T07:46:48.362Z,75.60
2022-08-27T07:49:17.507Z,74.30
2022-08-27T07:51:45.051Z,72.90
2022-08-27T07:54:12.315Z,73.10
2022-08-27T07:56:39.314Z,74.00
2022-08-27T07:59:06.583Z,73.10
2022-08-27T08:01:33.648Z,73.30
2022-08-27T08:04:00.858Z,72.40
2022-08-27T08:06:27.892Z,73.40
2022-08-27T08:08:55.056Z,72.90
2022-08-27T08:11:22.185Z,71.80
2022-08-27T08:13:49.215Z,71.50
2022-08-27T08:16:17.072Z,70.90
2022-08-27T08:18:44.218Z,68.40
2022-08-27T08:21:14.275Z,67.00
2022-08-27T08:23:42.577Z,65.50
2022-08-27T08:26:12.496Z,66.10
2022-08-27T08:28:40.531Z,64.50
2022-08-27T08:31:08.583Z,66.00
2022-08-27T08:33:36.392Z,65.00
2022-08-27T08:36:13.816Z,65.40
2022-08-27T08:38:41.581Z,63.90
2022-08-27T08:41:31.080Z,62.80
2022-08-27T08:44:03.364Z,62.80
2022-08-27T08:46:41.579Z,63.10
2022-08-27T08:49:29.423Z,63.30
2022-08-27T08:52:00.977Z,61.50
2022-08-27T08:54:33.516Z,61.40
2022-08-27T08:57:14.400Z,60.20
2022-08-27T08:59:54.656Z,60.50
2022-08-27T09:02:21.674Z,61.20
2022-08-27T09:04:48.710Z,60.50
2022-08-27T09:07:45.108Z,59.50
2022-08-27T09:10:24.282Z,58.70
2022-08-27T09:12:55.437Z,58.90
2022-08-27T09:15:29.584Z,56.90
2022-08-27T09:18:15.213Z,58.30
2022-08-27T09:20:49.570Z,55.30
2022-08-27T09:23:54.682Z,56.10
2022-08-27T09:26:25.542Z,56.30
2022-08-27T09:29:16.473Z,57.10
2022-08-27T09:32:08.603Z,52.60
2022-08-27T09:34:38.786Z,54.40
2022-08-27T09:37:17.199Z,52.70
2022-08-27T09:39:47.733Z,54.70
2022-08-27T09:42:34.148Z,53.40
2022-08-27T09:45:01.355Z,49.50
2022-08-27T09:47:28.662Z,51.30
2022-08-27T09:50:09.876Z,51.70
2022-08-27T09:52:55.572Z,52.30
2022-08-27T09:55:55.961Z,53.00
2022-08-27T09:58:51.730Z,53.10
2022-08-27T10:01:25.920Z,53.80
2022-08-27T10:04:12.810Z,52.70
2022-08-27T10:06:48.059Z,51.00
2022-08-27T10:09:33.388Z,50.70
2022-08-27T10:12:24.432Z,50.10
2022-08-27T10:15:00.923Z,48.30
2022-08-27T10:17:49.587Z,49.20
2022-08-27T10:20:30.169Z,48.30
2022-08-27T10:22:58.244Z,47.50
2022-08-27T10:25:43.351Z,48.50
2022-08-27T10:28:36.925Z,46.30
2022-08-27T10:31:04.116Z,45.30
2022-08-27T10:33:55.916Z,44.00
2022-08-27T10:36:55.189Z,45.50
2022-08-27T10:39:28.203Z,42.90
2022-08-27T10:42:01.246Z,43.90
2022-08-27T10:44:36.477Z,44.40
2022-08-27T10:47:20.481Z,40.90
2022-08-27T10:50:02.528Z,40.10
2022-08-27T10:53:06.608Z,40.80
2022-08-27T10:55:42.458Z,41.20
2022-08-27T10:58:31.095Z,40.00
2022-08-27T11:01:23.471Z,39.10
2022-08-27T11:03:56.326Z,39.50
2022-08-27T11:06:46.105Z,38.80
2022-08-27T11:09:39.783Z,39.30
2022-08-27T11:12:14.260Z,37.40
2022-08-27T11:14:53.733Z,38.30
2022-08-27T11:17:45.969Z,37.20
2022-08-27T11:20:12.907Z,38.60
2022-08-27T11:22:54.555Z,37.20
2022-08-27T11:25:51.022Z,37.40
2022-08-27T11:28:30.166Z,37.00
2022-08-27T11:31:06.884Z,36.60
2022-08-27T11:33:58.123Z,37.70
2022-08-27T11:36:54.360Z,36.60
2022-08-27T11:39:52.056Z,36.90
2022-08-27T11:42:35.342Z,35.40
2022-08-27T11:45:16.885Z,35.80
2022-08-27T11:47:59.076Z,35.60
2022-08-27T11:50:26.923Z,37.10
2022-08-27T11:53:01.530Z,38.00
2022-08-27T11:55:36.722Z,36.10
2022-08-27T11:58:18.852Z,36.30
2022-08-27T12:00:46.943Z,35.90
2022-08-27T12:03:19.738Z,35.40
2022-08-27T12:05:55.721Z,35.80
2022-08-27T12:08:22.674Z,33.80
2022-08-27T12:11:02.194Z,34.20
2022-08-27T12:13:34.603Z,34.80
2022-08-27T12:16:12.774Z,34.80
2022-08-27T12:18:51.900Z,34.70
2022-08-27T12:21:54.480Z,34.30
2022-08-27T12:24:30.889Z,35.50
2022-08-27T12:27:13.628Z,33.70
2022-08-27T12:29:57.766Z,35.70
2022-08-27T12:32:27.523Z,34.50
2022-08-27T12:35:00.827Z,34.20
2022-08-27T12:37:43.330Z,34.90
2022-08-27T12:40:24.575Z,34.10
2022-08-27T12:43:03.847Z,34.50
2022-08-27T12:45:31.113Z,33.30
2022-08-27T12:48:01.461Z,35.10
2022-08-27T12:50:30.775Z,33.40
2022-08-27T12:53:23.788Z,33.90
2022-08-27T12:56:02.785Z,34.60
2022-08-27T12:58:47.391Z,33.30
2022-08-27T13:01:17.256Z,34.20
2022-08-27T13:03:54.344Z,33.30
2022-08-27T13:06:33.863Z,34.30
2022-08-27T13:09:07.267Z,35.10
2022-08-27T13:11:48.979Z,36.20
2022-08-27T13:14:22.383Z,36.10
2022-08-27T13:16:54.908Z,34.70
2022-08-27T13:19:26.734Z,34.70
2022-08-27T13:21:57.089Z,34.30
2022-08-27T13:24:49.110Z,34.80
2022-08-27T13:27:16.567Z,35.00
2022-08-27T13:29:43.971Z,37.50
2022-08-27T13:32:14.388Z,33.40
2022-08-27T13:34:42.194Z,35.70
2022-08-27T13:37:27.421Z,34.60
2022-08-27T13:39:56.846Z,33.80
2022-08-27T13:42:25.602Z,33.60
2022-08-27T13:45:01.559Z,33.60
2022-08-27T13:47:30.223Z,34.40
2022-08-27T13:50:13.232Z,35.80
2022-08-27T13:53:01.816Z,36.40
2022-08-27T13:55:30.476Z,35.60
2022-08-27T13:58:00.733Z,36.70
2022-08-27T14:00:33.339Z,36.60
2022-08-27T14:03:03.962Z,36.60
2022-08-27T14:05:34.138Z,36.10
2022-08-27T14:08:12.657Z,35.50
2022-08-27T14:10:39.848Z,36.30
2022-08-27T14:13:11.461Z,36.30
2022-08-27T14:15:44.944Z,36.10
2022-08-27T14:18:59.726Z,35.40
2022-08-27T14:21:27.080Z,36.30
2022-08-27T14:23:54.419Z,36.70
2022-08-27T14:26:21.573Z,36.00
2022-08-27T14:28:48.677Z,35.50
2022-08-27T14:31:16.725Z,37.00
2022-08-27T14:33:43.942Z,35.90
2022-08-27T14:36:11.819Z,35.30
2022-08-27T14:38:42.724Z,35.30
2022-08-27T14:41:09.987Z,35.90
2022-08-27T14:43:37.958Z,36.80
2022-08-27T14:46:06.887Z,37.80
2022-08-27T14:48:34.714Z,37.40
2022-08-27T14:51:13.023Z,37.00
2022-08-27T14:53:39.985Z,36.90
2022-08-27T14:56:07.159Z,36.30
2022-08-27T14:58:34.275Z,35.50
2022-08-27T15:01:02.174Z,35.90
2022-08-27T15:03:29.206Z,36.30
2022-08-27T15:05:56.674Z,36.50
2022-08-27T15:08:29.181Z,37.60
2022-08-27T15:10:58.113Z,36.00
2022-08-27T15:13:25.253Z,36.80
2022-08-27T15:15:52.763Z,37.20
2022-08-27T15:18:20.209Z,37.60
2022-08-27T15:20:47.438Z,37.10
2022-08-27T15:23:16.041Z,36.80
2022-08-27T15:25:45.758Z,37.70
2022-08-27T15:28:13.140Z,38.60
2022-08-27T15:30:40.493Z,38.30
2022-08-27T15:33:07.516Z,38.00
2022-08-27T15:35:35.198Z,38.50
2022-08-27T15:38:02.651Z,38.20
2022-08-27T15:40:33.315Z,38.40
2022-08-27T15:43:04.945Z,39.00
2022-08-27T15:45:32.691Z,39.20
2022-08-27T15:48:00.385Z,39.30
2022-08-27T15:50:29.128Z,39.60
2022-08-27T15:53:01.390Z,40.00
2022-08-27T15:55:32.086Z,39.50
2022-08-27T15:58:00.099Z,39.80
2022-08-27T16:00:29.003Z,40.00
2022-08-27T16:02:57.056Z,40.20
2022-08-27T16:05:24.337Z,40.50
2022-08-27T16:07:51.260Z,41.50
2022-08-27T16:10:18.790Z,41.20
2022-08-27T16:12:46.275Z,41.60
2022-08-27T16:15:14.258Z,42.30
2022-08-27T16:17:42.672Z,41.40
2022-08-27T16:20:11.398Z,41.20
2022-08-27T16:22:38.609Z,41.80
2022-08-27T16:25:07.155Z,42.20
2022-08-27T16:27:34.554Z,42.70
2022-08-27T16:30:01.917Z,43.00
2022-08-27T16:32:31.347Z,42.80
2022-08-27T16:34:58.235Z,46.40
2022-08-27T16:37:25.695Z,45.60
2022-08-27T16:39:53.539Z,46.30
2022-08-27T16:42:21.249Z,47.00
2022-08-27T16:44:48.555Z,47.30
2022-08-27T16:47:15.656Z,48.30
2022-08-27T16:50:24.285Z,47.10
2022-08-27T16:52:51.446Z,47.80
2022-08-27T16:55:19.501Z,48.10
2022-08-27T16:57:46.633Z,47.90
2022-08-27T17:00:14.200Z,48.20
2022-08-27T17:02:41.246Z,48.50
2022-08-27T17:05:34.105Z,48.20
2022-08-27T17:07:55.895Z,49.00
2022-08-27T17:10:22.843Z,49.30
2022-08-27T17:12:49.721Z,49.50
2022-08-27T17:15:17.709Z,50.80
2022-08-27T17:17:45.615Z,50.30
2022-08-27T17:20:15.264Z,49.80
2022-08-27T17:22:43.471Z,50.50
2022-08-27T17:25:10.897Z,50.50
2022-08-27T17:27:37.867Z,50.00
2022-08-27T17:30:05.916Z,50.50
2022-08-27T17:32:38.666Z,50.50
2022-08-27T17:35:07.079Z,50.90
2022-08-27T17:37:34.590Z,50.90
2022-08-27T17:40:02.373Z,51.00
2022-08-27T17:42:29.763Z,51.80
2022-08-27T17:44:57.262Z,51.80
2022-08-27T17:47:25.327Z,51.20
2022-08-27T17:49:53.009Z,52.30
2022-08-27T17:52:20.473Z,52.60
2022-08-27T17:54:51.481Z,52.70
2022-08-27T17:57:25.224Z,53.00
2022-08-27T17:59:53.768Z,53.20
2022-08-27T18:02:41.282Z,53.10
2022-08-27T18:05:10.588Z,53.80
2022-08-27T18:10:08.764Z,53.20
2022-08-27T18:12:36.173Z,54.50
2022-08-27T18:15:14.520Z,55.60
2022-08-27T18:17:42.529Z,55.60
2022-08-27T18:20:13.639Z,56.10
2022-08-27T18:22:48.410Z,56.40
2022-08-27T18:25:20.993Z,56.50
2022-08-27T18:27:50.386Z,57.00
2022-08-27T18:30:17.909Z,57.10
2022-08-27T18:32:45.125Z,58.60
2022-08-27T18:35:19.912Z,58.50
2022-08-27T18:37:47.352Z,57.50
2022-08-27T18:40:16.933Z,58.90
2022-08-27T18:42:44.754Z,59.30
2022-08-27T18:45:23.275Z,58.60
2022-08-27T18:47:55.713Z,59.90
2022-08-27T18:50:23.652Z,58.50
2022-08-27T18:52:53.587Z,59.50
2022-08-27T18:55:23.552Z,59.40
2022-08-27T18:57:50.457Z,60.00
2022-08-27T19:00:19.227Z,60.10
2022-08-27T19:02:52.090Z,60.30
2022-08-27T19:05:25.147Z,60.70
2022-08-27T19:07:52.720Z,61.50
2022-08-27T19:10:20.173Z,61.40
2022-08-27T19:12:47.866Z,61.60
2022-08-27T19:15:15.608Z,61.90
2022-08-27T19:17:45.778Z,61.80
2022-08-27T19:20:13.238Z,62.00
2022-08-27T19:22:40.194Z,62.10
2022-08-27T19:25:07.633Z,62.20
2022-08-27T19:27:35.626Z,62.20
2022-08-27T19:30:03.838Z,62.20
2022-08-27T19:32:31.102Z,62.80
2022-08-27T19:34:58.052Z,62.30
2022-08-27T19:37:29.351Z,62.60
2022-08-27T19:39:56.787Z,62.40
2022-08-27T19:42:24.218Z,62.50
2022-08-27T19:44:51.172Z,61.90
2022-08-27T19:47:18.920Z,62.60
2022-08-27T19:49:49.844Z,63.30
2022-08-27T19:52:16.924Z,63.40
2022-08-27T19:55:09.824Z,63.50
2022-08-27T19:57:32.036Z,63.20
2022-08-27T19:59:58.961Z,63.70
2022-08-27T20:02:26.005Z,64.40
2022-08-27T20:05:16.435Z,62.90
2022-08-27T20:07:40.547Z,63.60
2022-08-27T20:10:08.886Z,63.70
2022-08-27T20:12:36.546Z,64.40
2022-08-27T20:15:05.487Z,62.90
2022-08-27T20:17:32.959Z,63.80
2022-08-27T20:20:00.554Z,64.90
2022-08-27T20:22:28.503Z,65.40
2022-08-27T20:24:55.469Z,64.70
2022-08-27T20:27:22.475Z,64.40
2022-08-27T20:29:49.659Z,65.10
2022-08-27T20:32:16.761Z,62.70
2022-08-27T20:34:44.370Z,62.00
2022-08-27T20:37:11.389Z,62.00
2022-08-27T20:39:38.502Z,62.20
2022-08-27T20:42:06.148Z,62.90
2022-08-27T20:44:33.121Z,64.20
2022-08-27T20:47:01.746Z,63.60
2022-08-27T20:49:29.830Z,64.70
2022-08-27T20:52:03.605Z,64.60
2022-08-27T20:54:33.989Z,64.70
2022-08-27T20:57:01.465Z,65.10
2022-08-27T20:59:47.768Z,65.10
2022-08-27T21:02:16.107Z,66.30
2022-08-27T21:04:48.701Z,66.80
2022-08-27T21:07:18.004Z,67.90
2022-08-27T21:09:55.843Z,68.80
2022-08-27T21:12:27.863Z,69.00
2022-08-27T21:14:56.651Z,69.00
2022-08-27T21:17:26.713Z,70.10
2022-08-27T21:19:53.841Z,70.30
2022-08-27T21:22:21.891Z,70.00
2022-08-27T21:24:49.015Z,70.20
2022-08-27T21:27:17.994Z,70.40
2022-08-27T21:29:45.382Z,70.80
2022-08-27T21:32:13.601Z,71.50
2022-08-27T21:34:44.260Z,71.90
2022-08-27T21:37:13.675Z,72.30
2022-08-27T21:39:42.337Z,71.90
2022-08-27T21:42:10.975Z,71.80
2022-08-27T21:44:38.266Z,72.50
2022-08-27T21:47:06.036Z,72.80
2022-08-27T21:49:33.470Z,73.20
2022-08-27T21:52:03.449Z,73.10
2022-08-27T21:54:36.704Z,72.80
2022-08-27T21:57:05.132Z,73.40
2022-08-27T21:59:34.211Z,73.50
2022-08-27T22:02:01.503Z,73.00
2022-08-27T22:04:29.798Z,72.30
2022-08-27T22:06:58.754Z,71.40
2022-08-27T22:09:25.947Z,69.80
2022-08-27T22:11:52.993Z,69.90
2022-08-27T22:14:19.983Z,70.70
2022-08-27T22:16:47.705Z,70.80
2022-08-27T22:19:14.648Z,70.40
2022-08-27T22:21:41.935Z,70.60
2022-08-27T22:24:09.619Z,70.50
2022-08-27T22:26:36.663Z,70.70
2022-08-27T22:29:04.951Z,70.80
2022-08-27T22:31:32.811Z,70.70
2022-08-27T22:34:01.221Z,70.60
2022-08-27T22:36:28.759Z,70.60
2022-08-27T22:38:55.754Z,71.50
2022-08-27T22:41:26.916Z,72.50
2022-08-27T22:43:56.821Z,72.30
2022-08-27T22:46:24.962Z,72.60
2022-08-27T22:48:51.914Z,73.00
2022-08-27T22:51:18.935Z,73.80
2022-08-27T22:53:46.340Z,74.70
2022-08-27T22:56:13.577Z,75.10
2022-08-27T22:58:46.115Z,76.20
2022-08-27T23:01:17.958Z,76.60
2022-08-27T23:03:44.931Z,77.20
2022-08-27T23:06:12.043Z,77.00
2022-08-27T23:08:39.207Z,77.30
2022-08-27T23:11:06.277Z,76.50
2022-08-27T23:13:33.649Z,76.60
2022-08-27T23:16:03.082Z,77.10
2022-08-27T23:18:30.170Z,77.50
2022-08-27T23:20:57.288Z,77.80
2022-08-27T23:23:27.619Z,78.50
2022-08-27T23:26:16.383Z,78.10
2022-08-27T23:28:44.277Z,77.70
2022-08-27T23:31:12.108Z,75.90
2022-08-27T23:33:39.641Z,74.30
2022-08-27T23:36:07.160Z,74.20
2022-08-27T23:38:34.315Z,73.70
2022-08-27T23:41:01.303Z,73.20
2022-08-27T23:43:28.582Z,73.20
2022-08-27T23:45:55.478Z,72.50
2022-08-27T23:48:22.638Z,72.70
2022-08-27T23:50:49.593Z,72.60
2022-08-27T23:53:16.499Z,72.10
2022-08-27T23:55:43.876Z,71.80
2022-08-27T23:58:11.381Z,71.80
